createdAt,value
2022-08-08T00:02:59.633Z,98943.16
2022-08-08T00:08:31.170Z,98944.47
2022-08-08T00:14:17.225Z,98942.34
2022-08-08T00:20:01.348Z,98957.63
2022-08-08T00:25:44.863Z,98962.94
2022-08-08T00:32:29.172Z,98966.16
2022-08-08T00:37:47.918Z,98964.88
2022-08-08T00:43:40.704Z,98970.63
2022-08-08T00:49:24.471Z,98970.72
2022-08-08T00:55:06.999Z,98975.50
2022-08-08T01:00:44.582Z,98981.03
2022-08-08T01:06:47.609Z,98981.00
2022-08-08T01:12:42.009Z,98976.59
2022-08-08T01:18:53.625Z,98972.81
2022-08-08T01:24:22.408Z,98974.34
2022-08-08T01:30:08.925Z,98978.13
2022-08-08T01:36:23.058Z,98977.63
2022-08-08T01:42:35.285Z,98971.41
2022-08-08T01:48:30.701Z,98979.38
2022-08-08T01:55:25.628Z,98985.22
2022-08-08T02:00:21.743Z,98986.00
2022-08-08T02:06:08.736Z,98985.06
2022-08-08T02:11:59.435Z,98983.19
2022-08-08T02:18:01.563Z,98977.97
2022-08-08T02:23:35.377Z,98972.69
2022-08-08T02:29:06.367Z,98973.19
2022-08-08T02:35:06.437Z,98968.09
2022-08-08T02:40:53.126Z,98969.75
2022-08-08T02:46:54.262Z,98964.97
2022-08-08T02:52:34.685Z,98975.34
2022-08-08T02:58:43.759Z,98979.22
2022-08-08T03:05:02.420Z,98983.56
2022-08-08T03:10:57.084Z,98983.91
2022-08-08T03:16:35.459Z,98988.06
2022-08-08T03:21:59.550Z,98997.53
2022-08-08T03:27:45.159Z,98993.69
2022-08-08T03:33:55.038Z,99008.41
2022-08-08T03:39:14.454Z,98997.50
2022-08-08T03:44:38.772Z,99006.97
2022-08-08T03:50:02.138Z,99017.94
2022-08-08T03:55:57.812Z,99023.53
2022-08-08T04:01:23.101Z,99026.16
2022-08-08T04:06:56.183Z,99034.81
2022-08-08T04:12:18.088Z,99036.50
2022-08-08T04:17:58.295Z,99037.69
2022-08-08T04:23:21.065Z,99044.53
2022-08-08T04:28:42.906Z,99051.59
2022-08-08T04:34:04.868Z,99056.22
2022-08-08T04:40:05.869Z,99054.66
2022-08-08T04:45:08.975Z,99072.94
2022-08-08T04:50:38.295Z,99078.56
2022-08-08T04:56:00.900Z,99075.94
2022-08-08T05:01:22.884Z,99087.13
2022-08-08T05:06:45.293Z,99096.13
2022-08-08T05:12:09.246Z,99100.06
2022-08-08T05:17:37.303Z,99088.19
2022-08-08T05:23:13.055Z,99096.59
2022-08-08T05:28:56.033Z,99091.66
2022-08-08T05:34:34.055Z,99097.44
2022-08-08T05:40:01.894Z,99098.63
2022-08-08T05:45:41.366Z,99101.41
2022-08-08T05:51:14.364Z,99104.84
2022-08-08T05:56:42.398Z,99108.84
2022-08-08T06:02:43.604Z,99109.31
2022-08-08T06:08:10.229Z,99118.69
2022-08-08T06:13:50.810Z,99121.56
2022-08-08T06:19:16.936Z,99117.72
2022-08-08T06:24:40.086Z,99120.91
2022-08-08T06:30:11.909Z,99128.50
2022-08-08T06:36:06.740Z,99131.25
2022-08-08T06:41:33.553Z,99130.31
2022-08-08T06:46:56.718Z,99139.97
2022-08-08T06:52:19.162Z,99134.88
2022-08-08T06:57:44.232Z,99138.31
2022-08-08T07:03:52.261Z,99136.09
2022-08-08T07:09:21.158Z,99136.69
2022-08-08T07:14:58.269Z,99132.59
2022-08-08T07:20:34.932Z,99135.38
2022-08-08T07:26:05.328Z,99144.25
2022-08-08T07:31:28.755Z,99141.78
2022-08-08T07:36:58.718Z,99137.91
2022-08-08T07:42:20.714Z,99137.91
2022-08-08T07:47:54.850Z,99137.06
2022-08-08T07:54:01.333Z,99130.78
2022-08-08T07:59:16.375Z,99136.56
2022-08-08T08:04:49.091Z,99140.34
2022-08-08T08:10:18.159Z,99146.78
2022-08-08T08:16:05.753Z,99145.91
2022-08-08T08:21:35.379Z,99152.66
2022-08-08T08:27:09.399Z,99148.16
2022-08-08T08:32:36.767Z,99150.38
2022-08-08T08:38:17.408Z,99152.44
2022-08-08T08:43:42.416Z,99142.69
2022-08-08T08:49:06.753Z,99145.72
2022-08-08T08:54:34.125Z,99147.81
2022-08-08T09:00:01.458Z,99146.06
2022-08-08T09:05:54.518Z,99136.25
2022-08-08T09:11:12.062Z,99142.22
2022-08-08T09:16:34.155Z,99140.50
2022-08-08T09:22:06.132Z,99139.81
2022-08-08T09:27:41.793Z,99136.41
2022-08-08T09:34:15.931Z,99126.25
2022-08-08T09:38:59.795Z,99123.56
2022-08-08T09:44:35.449Z,99129.03
2022-08-08T09:50:01.492Z,99119.78
2022-08-08T09:56:01.863Z,99105.03
2022-08-08T10:01:14.488Z,99110.25
2022-08-08T10:06:45.185Z,99105.94
2022-08-08T10:12:27.835Z,99100.00
2022-08-08T10:18:11.751Z,99097.22
2022-08-08T10:23:48.282Z,99091.75
2022-08-08T10:29:22.990Z,99092.81
2022-08-08T10:34:58.451Z,99098.72
2022-08-08T10:40:21.265Z,99086.59
2022-08-08T10:45:57.075Z,99092.44
2022-08-08T10:51:26.134Z,99089.59
2022-08-08T10:56:57.652Z,99080.63
2022-08-08T11:02:27.240Z,99088.78
2022-08-08T11:08:30.583Z,99082.63
2022-08-08T11:13:52.044Z,99070.63
2022-08-08T11:19:24.930Z,99073.09
2022-08-08T11:24:49.006Z,99062.59
2022-08-08T11:30:20.100Z,99049.88
2022-08-08T11:35:43.829Z,99054.22
2022-08-08T11:41:05.818Z,99040.84
2022-08-08T11:46:30.568Z,99026.09
2022-08-08T11:51:55.470Z,99040.94
2022-08-08T11:57:34.783Z,99036.56
2022-08-08T12:02:58.549Z,99031.34
2022-08-08T12:08:50.425Z,99020.91
2022-08-08T12:14:22.195Z,99013.31
2022-08-08T12:19:56.648Z,99004.38
2022-08-08T12:25:31.036Z,99011.16
2022-08-08T12:30:53.249Z,99011.06
2022-08-08T12:36:16.356Z,99004.84
2022-08-08T12:41:57.315Z,99000.06
2022-08-08T12:47:58.016Z,99000.59
2022-08-08T12:53:29.988Z,98992.19
2022-08-08T12:58:54.489Z,99005.03
2022-08-08T13:04:24.377Z,98990.03
2022-08-08T13:10:05.277Z,98989.50
2022-08-08T13:15:29.619Z,98990.81
2022-08-08T13:20:51.386Z,98976.97
2022-08-08T13:26:14.878Z,98986.31
2022-08-08T13:31:46.976Z,98976.47
2022-08-08T13:37:19.816Z,98969.94
2022-08-08T13:42:50.414Z,98964.19
2022-08-08T13:48:14.537Z,98964.16
2022-08-08T13:53:40.595Z,98957.44
2022-08-08T13:59:15.236Z,98951.22
2022-08-08T14:04:37.163Z,98950.75
2022-08-08T14:10:32.536Z,98955.28
2022-08-08T14:16:03.723Z,98944.63
2022-08-08T14:21:40.625Z,98945.09
2022-08-08T14:27:27.274Z,98940.06
2022-08-08T14:32:52.811Z,98946.19
2022-08-08T14:38:34.485Z,98936.13
2022-08-08T14:44:09.844Z,98930.94
2022-08-08T14:49:37.961Z,98941.66
2022-08-08T14:55:22.202Z,98933.09
2022-08-08T15:00:57.321Z,98930.84
2022-08-08T15:06:19.253Z,98925.56
2022-08-08T15:11:46.474Z,98920.56
2022-08-08T15:17:14.889Z,98922.41
2022-08-08T15:22:37.550Z,98923.06
2022-08-08T15:28:34.214Z,98925.59
2022-08-08T15:33:58.426Z,98929.84
2022-08-08T15:39:21.362Z,98926.81
2022-08-08T15:44:43.595Z,98918.69
2022-08-08T15:50:15.634Z,98926.13
2022-08-08T15:55:43.102Z,98917.69
2022-08-08T16:01:07.950Z,98911.94
2022-08-08T16:06:31.146Z,98912.69
2022-08-08T16:13:09.546Z,98916.50
2022-08-08T16:17:57.288Z,98908.72
2022-08-08T16:23:16.616Z,98911.00
2022-08-08T16:28:38.841Z,98913.59
2022-08-08T16:34:03.398Z,98915.00
2022-08-08T16:40:01.240Z,98909.72
2022-08-08T16:46:36.416Z,98914.66
2022-08-08T16:50:49.779Z,98910.66
2022-08-08T16:56:15.234Z,98914.38
2022-08-08T17:01:39.689Z,98925.03
2022-08-08T17:07:01.720Z,98920.00
2022-08-08T17:12:28.377Z,98919.19
2022-08-08T17:18:03.772Z,98925.94
2022-08-08T17:24:00.878Z,98928.56
2022-08-08T17:29:08.792Z,98933.44
2022-08-08T17:34:48.044Z,98934.25
2022-08-08T17:40:15.219Z,98943.03
2022-08-08T17:45:37.332Z,98945.38
2022-08-08T17:51:00.945Z,98945.06
2022-08-08T17:56:22.877Z,98955.59
2022-08-08T18:01:51.265Z,98953.56
2022-08-08T18:08:03.128Z,98955.31
2022-08-08T18:12:57.397Z,98965.09
2022-08-08T18:18:29.453Z,98965.81
2022-08-08T18:23:56.131Z,98964.03
2022-08-08T18:29:20.777Z,98964.97
2022-08-08T18:34:46.825Z,98974.25
2022-08-08T18:40:13.022Z,98979.16
2022-08-08T18:46:53.020Z,98980.06
2022-08-08T18:51:42.074Z,98997.00
2022-08-08T18:56:58.586Z,99002.44
2022-08-08T19:02:27.836Z,99011.88
2022-08-08T19:07:52.193Z,99019.31
2022-08-08T19:13:21.737Z,99031.06
2022-08-08T19:18:49.693Z,99038.78
2022-08-08T19:24:34.123Z,99050.03
2022-08-08T19:30:00.191Z,99050.53
2022-08-08T19:35:25.718Z,99056.41
2022-08-08T19:41:05.861Z,99061.25
2022-08-08T19:46:28.029Z,99075.31
2022-08-08T19:51:55.577Z,99079.13
2022-08-08T19:57:17.462Z,99082.97
2022-08-08T20:02:39.818Z,99088.97
2022-08-08T20:08:27.945Z,99102.31
2022-08-08T20:14:33.406Z,99094.97
2022-08-08T20:19:26.321Z,99100.28
2022-08-08T20:24:56.681Z,99106.63
2022-08-08T20:30:53.614Z,99109.59
2022-08-08T20:36:08.626Z,99105.25
2022-08-08T20:41:32.113Z,99106.53
2022-08-08T20:46:55.855Z,99108.50
2022-08-08T20:52:17.738Z,99109.13
2022-08-08T20:57:43.847Z,99114.28
2022-08-08T21:03:09.640Z,99116.28
2022-08-08T21:08:49.106Z,99113.72
2022-08-08T21:14:11.341Z,99119.31
2022-08-08T21:19:45.324Z,99121.28
2022-08-08T21:25:13.484Z,99123.72
2022-08-08T21:30:35.469Z,99122.69
2022-08-08T21:36:13.559Z,99122.91
2022-08-08T21:41:43.303Z,99122.03
2022-08-08T21:48:03.905Z,99119.28
2022-08-08T21:54:36.674Z,99121.28
2022-08-08T21:58:38.864Z,99134.69
2022-08-08T22:04:06.199Z,99129.31
2022-08-08T22:09:37.211Z,99129.47
2022-08-08T22:15:04.367Z,99132.44
2022-08-08T22:20:28.351Z,99131.44
2022-08-08T22:26:28.319Z,99126.31
2022-08-08T22:31:31.928Z,99115.81
2022-08-08T22:36:57.139Z,99124.94
2022-08-08T22:42:27.164Z,99127.28
2022-08-08T22:47:53.223Z,99131.06
2022-08-08T22:58:57.042Z,99131.81
2022-08-08T23:04:31.901Z,99130.06
2022-08-08T23:09:59.491Z,99123.97
2022-08-08T23:16:38.914Z,99122.63
2022-08-08T23:21:05.313Z,99124.03
2022-08-08T23:26:29.792Z,99134.69
2022-08-08T23:31:51.959Z,99131.38
2022-08-08T23:37:13.844Z,99140.59
2022-08-08T23:42:36.072Z,99126.06
2022-08-08T23:49:03.336Z,99130.53
2022-08-08T23:54:06.504Z,99129.44
2022-08-08T23:59:23.270Z,99129.06
